Hidalgo, Illinois
Current Conditions -  °F | °C
As of 4:35 AM on Friday 31 Oct 2014 (Local Time) from K1H2 Reporting Station
Overcast Overcast  
Wind Chill: 43°   Ceiling: 7000
Heat Index: 45°   Visibility: 7mi
Dew Point: 42°   Wind: 5mph
Humidity: 90%   Direction: 310°NW
Pressure: 30.06"   Gusts: NA
Location:  39.16°N, 88.15°W
Report Text: K1H2 310935Z AUTO 31004KT 7SM BKN070 OVC080 07/06 A3006 RMK AO2 T00720056
Loading
Personal Weather Stations






























Interactive Weather Map
Tropical Storm Tracking
New forecast layout! Learn more

10-Day Weather Forecast

Advertisements
Track Severe Weather on mobile